54PA weather

Pine Bottom Heliport
Martinsburg, Pennsylvania, United States

Public forecast

Using degrees Fahrenheit for public forecast. Weather courtesy of forecast.io.

Closest aviation weather report (METAR) to Pine Bottom Heliport

Closest report is Altoona Blair County Airport, 3.7 nm (6.8 km) N. Retrieved 2020/01/22 09:53 UTC (38 minutes ago):

KAOO 220953Z AUTO 00000KT CLR M11/M14 A3038 RMK AO2 SLP315 T11061139

Closest aviation forecast (TAF) to Pine Bottom Heliport

Closest forecast is Altoona Blair County Airport, 3.7 nm (6.8 km) N. Retrieved 2020/01/22 06:33 UTC (4 hours ago):

TAF KAOO 220529Z 2206/2306 29003KT P6SM SKC FM221400 20004KT P6SM SCT250